Crystal Springs, North Dakota
Current Conditions -  °F | °C
As of 2:56 PM on Sunday 23 Nov 2014 (Local Time) from KJMS Reporting Station
Overcast Overcast  
Wind Chill:   Ceiling: 1300
Heat Index: 25°   Visibility: 10mi
Dew Point: 19°   Wind: 28mph
Humidity: 78%   Direction: 300°WNW
Pressure: 29.48"   Gusts: 36mph
Location:  46.8928°N, 99.3208°W
Report Text: KJMS 232056Z AUTO 30024G31KT 10SM OVC013 M04/M07 A2948 RMK AO2 PK WND 30034/2039 SLP000 T10391072 51001
Loading
Personal Weather Stations






























Interactive Weather Map New forecast layout! Learn more

10-Day Weather Forecast

Advertisements
Track Severe Weather on mobile